Time;durP1;ratioP1;P1;durP2;ratioP2;P2;SDS_P1;SDS_P2;PMS_P1;PMS_P2;Temp;Humidity;BMP_temperature;BMP_pressure;BME280_temperature;BME280_humidity;BME280_pressure;Samples;Min_cycle;Max_cycle;Signal;HPM_P1;HPM_P2
2021/07/29 00:00:38;;;;;;;17.35;10.32;;;22.50;99.90;;;;;;4979101;28;20197;-87
2021/07/29 00:03:05;;;;;;;15.98;8.85;;;22.50;99.90;;;;;;4995672;28;20201;-87
2021/07/29 00:05:32;;;;;;;11.55;8.52;;;22.50;99.90;;;;;;4962569;28;20635;-86
2021/07/29 00:07:58;;;;;;;13.38;8.55;;;22.50;99.90;;;;;;4979501;28;20625;-86
2021/07/29 00:10:25;;;;;;;14.95;8.52;;;22.50;99.90;;;;;;4961936;28;20272;-87
2021/07/29 00:12:50;;;;;;;11.85;8.20;;;22.50;99.90;;;;;;4996018;28;20177;-87
2021/07/29 00:15:17;;;;;;;13.40;8.82;;;22.40;99.90;;;;;;4978253;28;20198;-87
2021/07/29 00:20:21;;;;;;;12.27;8.13;;;22.40;99.90;;;;;;4979658;28;20185;-86
2021/07/29 00:22:49;;;;;;;12.82;7.88;;;22.40;99.90;;;;;;4995676;28;20185;-86
2021/07/29 00:25:15;;;;;;;14.95;8.02;;;22.40;99.90;;;;;;4995344;28;20177;-86
2021/07/29 00:27:42;;;;;;;10.35;7.35;;;22.40;99.90;;;;;;4994185;28;20206;-86
2021/07/29 00:30:09;;;;;;;10.43;6.95;;;22.40;99.90;;;;;;4977858;28;20600;-85
2021/07/29 00:32:35;;;;;;;11.95;7.43;;;22.40;99.90;;;;;;4995701;28;20182;-85
2021/07/29 00:35:06;;;;;;;15.85;6.85;;;22.30;99.90;;;;;;4974721;28;20242;-88
2021/07/29 00:37:36;;;;;;;7.45;5.90;;;22.30;99.90;;;;;;4974141;28;20182;-87
2021/07/29 00:40:03;;;;;;;13.95;6.35;;;22.20;99.90;;;;;;4974506;28;20186;-85
2021/07/29 00:42:29;;;;;;;7.63;6.07;;;22.10;99.90;;;;;;4975538;28;20182;-86
2021/07/29 00:44:55;;;;;;;9.55;6.85;;;22.00;99.90;;;;;;4976140;28;20182;-85
2021/07/29 00:47:21;;;;;;;13.23;6.65;;;22.00;99.90;;;;;;4975747;28;20518;-84
2021/07/29 00:49:48;;;;;;;9.60;6.35;;;21.90;99.90;;;;;;4974762;28;20687;-85
2021/07/29 00:52:15;;;;;;;9.40;6.35;;;21.90;99.90;;;;;;4980316;28;20179;-84
2021/07/29 00:54:42;;;;;;;11.55;5.82;;;21.90;99.90;;;;;;4984577;28;20178;-85
2021/07/29 00:57:09;;;;;;;6.55;5.80;;;21.80;99.90;;;;;;4985244;28;20631;-86
2021/07/29 00:59:36;;;;;;;8.27;6.32;;;21.70;99.90;;;;;;4975369;28;20178;-86
2021/07/29 01:02:02;;;;;;;8.32;6.75;;;21.70;99.90;;;;;;4975527;28;20178;-87
2021/07/29 01:04:28;;;;;;;7.57;6.25;;;;;;;;;;4975092;28;20182;-87
2021/07/29 01:06:57;;;;;;;8.20;6.40;;;21.70;99.90;;;;;;4974347;28;20179;-87
2021/07/29 01:09:23;;;;;;;8.35;6.82;;;21.60;99.90;;;;;;4974860;28;20206;-86
2021/07/29 01:11:49;;;;;;;9.38;6.53;;;21.60;99.90;;;;;;4974852;28;20707;-85
2021/07/29 01:14:15;;;;;;;13.68;7.07;;;21.60;99.90;;;;;;4974751;28;20175;-86
2021/07/29 01:16:41;;;;;;;11.40;7.18;;;21.60;99.90;;;;;;4975539;28;20504;-85
2021/07/29 01:19:08;;;;;;;11.52;7.10;;;21.70;99.90;;;;;;4990200;28;20541;-85
2021/07/29 01:21:35;;;;;;;11.23;7.10;;;21.70;99.90;;;;;;4973414;28;20268;-86
2021/07/29 01:24:01;;;;;;;10.20;7.20;;;21.70;99.90;;;;;;4974077;28;20179;-86
2021/07/29 01:26:27;;;;;;;9.57;7.88;;;21.70;99.90;;;;;;4973314;28;20181;-86
2021/07/29 01:28:56;;;;;;;8.77;6.13;;;21.70;99.90;;;;;;4974995;28;20202;-86
2021/07/29 01:31:23;;;;;;;13.52;7.43;;;;;;;;;;4974976;28;20182;-86
2021/07/29 01:33:48;;;;;;;11.30;7.00;;;21.70;99.90;;;;;;4984412;28;20232;-86
2021/07/29 01:36:14;;;;;;;7.15;6.03;;;21.70;99.90;;;;;;4976991;28;20264;-86
2021/07/29 01:38:40;;;;;;;7.22;6.40;;;21.80;99.90;;;;;;4993745;28;20188;-86
2021/07/29 01:41:06;;;;;;;7.45;5.82;;;21.80;99.90;;;;;;4945003;28;20642;-86
2021/07/29 01:43:32;;;;;;;8.48;6.32;;;21.80;99.90;;;;;;4976283;28;20181;-86
2021/07/29 01:45:59;;;;;;;9.38;6.45;;;21.80;99.90;;;;;;4994401;28;20208;-85
2021/07/29 01:48:29;;;;;;;8.88;6.50;;;21.70;99.90;;;;;;4993430;28;20209;-86
2021/07/29 01:50:54;;;;;;;15.60;7.28;;;21.80;99.90;;;;;;4993890;28;20665;-86
2021/07/29 01:53:20;;;;;;;8.30;6.40;;;21.80;99.90;;;;;;4993030;28;20182;-86
2021/07/29 01:55:47;;;;;;;9.38;6.60;;;21.70;99.90;;;;;;4993784;28;20185;-86
2021/07/29 01:58:14;;;;;;;9.32;7.55;;;21.60;99.90;;;;;;4976419;28;20182;-86
2021/07/29 02:00:43;;;;;;;13.30;7.25;;;21.60;99.90;;;;;;4993799;28;20181;-86
2021/07/29 02:03:09;;;;;;;7.93;6.80;;;21.60;99.90;;;;;;4993827;28;20178;-86
2021/07/29 02:05:35;;;;;;;12.85;7.32;;;21.50;99.90;;;;;;4991998;28;20185;-86
2021/07/29 02:08:01;;;;;;;11.77;7.60;;;21.50;99.90;;;;;;4976269;28;20186;-86
2021/07/29 02:10:28;;;;;;;9.43;7.00;;;21.50;99.90;;;;;;4993518;28;20643;-86
2021/07/29 02:12:57;;;;;;;11.20;7.30;;;21.40;99.90;;;;;;4976545;28;20186;-86
2021/07/29 02:15:23;;;;;;;12.65;8.02;;;21.40;99.90;;;;;;4993489;28;20170;-86
2021/07/29 02:17:49;;;;;;;9.18;6.18;;;21.30;99.90;;;;;;4993452;28;20189;-86
2021/07/29 02:20:15;;;;;;;10.75;6.47;;;21.20;99.90;;;;;;4992542;28;20272;-86
2021/07/29 02:22:41;;;;;;;7.47;6.18;;;21.00;99.90;;;;;;4993701;28;20186;-86
2021/07/29 02:25:07;;;;;;;11.20;4.97;;;20.90;99.90;;;;;;4994081;28;20246;-85
2021/07/29 02:27:34;;;;;;;6.10;4.85;;;20.80;99.90;;;;;;4992363;28;20190;-85
2021/07/29 02:30:00;;;;;;;8.40;5.75;;;20.70;99.90;;;;;;4976187;28;20213;-85
2021/07/29 02:32:27;;;;;;;7.75;5.78;;;20.70;99.90;;;;;;4976143;28;20288;-86
2021/07/29 02:34:52;;;;;;;8.63;4.95;;;20.60;99.90;;;;;;4956911;28;20244;-85
2021/07/29 02:37:19;;;;;;;7.68;5.20;;;20.50;99.90;;;;;;4974366;28;20234;-85
2021/07/29 02:39:45;;;;;;;7.28;5.07;;;20.50;99.90;;;;;;4972817;28;20191;-86
2021/07/29 02:42:11;;;;;;;7.75;4.70;;;20.40;99.90;;;;;;4976577;28;20202;-87
2021/07/29 02:44:36;;;;;;;7.68;5.55;;;20.30;99.90;;;;;;4972329;28;20360;-86
2021/07/29 02:47:02;;;;;;;9.30;5.15;;;20.30;99.90;;;;;;4973021;28;20221;-86
2021/07/29 02:49:28;;;;;;;8.32;5.40;;;20.30;99.90;;;;;;4956393;28;20210;-87
2021/07/29 02:51:54;;;;;;;9.80;5.15;;;20.30;99.90;;;;;;4973781;28;20178;-86
2021/07/29 02:54:19;;;;;;;8.05;5.63;;;20.30;99.90;;;;;;4972705;28;20179;-85
2021/07/29 02:56:45;;;;;;;13.10;6.30;;;20.20;99.90;;;;;;4972284;28;20179;-85
2021/07/29 02:59:11;;;;;;;10.95;6.55;;;20.10;99.90;;;;;;4940802;28;20289;-86
2021/07/29 03:01:36;;;;;;;9.43;6.78;;;20.00;99.90;;;;;;4956606;28;20183;-86
2021/07/29 03:04:02;;;;;;;10.13;7.75;;;19.90;99.90;;;;;;4974212;28;20539;-85
2021/07/29 03:06:28;;;;;;;12.68;7.07;;;19.80;99.90;;;;;;4976391;28;20330;-87
2021/07/29 03:08:54;;;;;;;13.25;7.80;;;19.80;99.90;;;;;;4976389;28;20543;-85
2021/07/29 03:11:19;;;;;;;15.98;9.38;;;19.90;99.90;;;;;;4976250;28;20209;-86
2021/07/29 03:13:46;;;;;;;10.88;9.15;;;19.80;99.90;;;;;;4976904;28;20174;-85
2021/07/29 03:16:12;;;;;;;17.20;11.38;;;19.70;99.90;;;;;;4977793;28;20171;-85
2021/07/29 03:18:38;;;;;;;15.32;12.32;;;19.70;99.90;;;;;;4975996;28;20217;-85
2021/07/29 03:21:09;;;;;;;17.52;13.35;;;19.70;99.90;;;;;;4976451;28;20178;-87
2021/07/29 03:23:38;;;;;;;19.40;14.90;;;19.70;99.90;;;;;;4975996;28;20159;-86
2021/07/29 03:26:04;;;;;;;23.75;16.05;;;19.70;99.90;;;;;;4976181;28;20535;-85
2021/07/29 03:28:30;;;;;;;22.42;17.33;;;19.70;99.90;;;;;;4960231;28;20568;-87
2021/07/29 03:30:56;;;;;;;31.75;19.70;;;19.70;99.90;;;;;;4977316;28;20190;-87
2021/07/29 03:33:23;;;;;;;26.90;18.45;;;19.60;99.90;;;;;;4975651;28;20237;-88
2021/07/29 03:35:49;;;;;;;31.00;20.65;;;19.70;99.90;;;;;;4976390;28;20181;-87
2021/07/29 03:38:15;;;;;;;29.73;21.15;;;19.70;99.90;;;;;;4977039;28;20182;-87
2021/07/29 03:40:41;;;;;;;29.92;21.88;;;19.70;99.90;;;;;;4973037;28;20269;-86
2021/07/29 03:43:07;;;;;;;35.47;22.30;;;19.70;99.90;;;;;;4962661;28;20195;-88
2021/07/29 03:45:36;;;;;;;32.42;23.60;;;19.70;99.90;;;;;;4963078;28;20179;-87
2021/07/29 03:48:03;;;;;;;35.25;23.10;;;19.70;99.90;;;;;;4956153;28;20183;-88
2021/07/29 03:50:29;;;;;;;40.33;23.45;;;19.80;99.90;;;;;;4963220;28;20283;-86
2021/07/29 03:52:56;;;;;;;58.25;23.13;;;19.80;99.90;;;;;;4954036;28;20199;-89
2021/07/29 03:55:22;;;;;;;34.72;23.25;;;19.80;99.90;;;;;;4955031;28;20187;-87
2021/07/29 03:57:47;;;;;;;30.77;21.80;;;19.80;99.90;;;;;;4970094;28;20187;-88
2021/07/29 04:00:14;;;;;;;33.08;24.02;;;19.80;99.90;;;;;;4950995;28;20195;-86
2021/07/29 04:02:40;;;;;;;33.50;23.58;;;19.90;99.90;;;;;;4955946;28;20190;-87
2021/07/29 04:05:07;;;;;;;34.30;23.25;;;19.90;99.90;;;;;;4955714;28;20278;-88
2021/07/29 04:07:34;;;;;;;32.15;23.15;;;19.90;99.90;;;;;;4970354;28;20225;-88
2021/07/29 04:10:00;;;;;;;35.70;24.25;;;20.00;99.90;;;;;;4955055;28;20206;-89
2021/07/29 04:12:26;;;;;;;31.38;23.58;;;20.00;99.90;;;;;;4967258;28;20187;-88
2021/07/29 04:14:51;;;;;;;29.70;22.85;;;20.00;99.90;;;;;;4954745;28;20194;-88
2021/07/29 04:17:17;;;;;;;33.28;24.60;;;20.00;99.90;;;;;;4969543;28;20343;-89
2021/07/29 04:19:44;;;;;;;34.45;23.67;;;20.10;99.90;;;;;;4966576;28;20210;-89
2021/07/29 04:22:10;;;;;;;34.35;23.40;;;20.00;99.90;;;;;;4956012;28;20265;-90
2021/07/29 04:24:36;;;;;;;33.10;24.27;;;20.10;99.90;;;;;;4969672;28;20657;-89
2021/07/29 04:27:02;;;;;;;30.80;22.55;;;20.10;99.90;;;;;;4954863;28;20230;-90
2021/07/29 04:29:31;;;;;;;29.80;21.75;;;20.10;99.90;;;;;;4956773;29;20203;-89
2021/07/29 04:31:58;;;;;;;32.88;21.42;;;20.10;99.90;;;;;;4956626;28;20183;-89
2021/07/29 04:34:23;;;;;;;24.60;19.35;;;20.10;99.90;;;;;;4970491;28;20242;-89
2021/07/29 04:36:49;;;;;;;28.20;19.67;;;20.10;99.90;;;;;;4974940;28;20632;-89
2021/07/29 04:39:15;;;;;;;24.30;17.27;;;20.20;99.90;;;;;;4975686;28;20588;-88
2021/07/29 04:41:42;;;;;;;21.73;16.23;;;20.20;99.90;;;;;;4942895;28;20190;-88
2021/07/29 04:44:09;;;;;;;19.20;14.90;;;20.20;99.90;;;;;;4975233;28;20187;-89
2021/07/29 04:46:35;;;;;;;20.50;14.38;;;20.20;99.90;;;;;;4974862;28;20175;-88
2021/07/29 04:49:02;;;;;;;21.27;15.35;;;20.20;99.90;;;;;;4976442;28;20574;-88
2021/07/29 04:51:28;;;;;;;17.17;14.40;;;20.30;99.90;;;;;;4959664;28;20183;-89
2021/07/29 04:53:54;;;;;;;15.65;12.40;;;20.30;99.90;;;;;;4974394;28;20181;-89
2021/07/29 04:56:19;;;;;;;13.88;12.07;;;20.40;99.90;;;;;;4958269;28;20581;-90
2021/07/29 04:58:47;;;;;;;15.48;12.65;;;20.40;99.90;;;;;;4958237;28;20206;-90
2021/07/29 05:01:13;;;;;;;15.73;12.23;;;20.40;99.90;;;;;;4976010;28;20175;-91
2021/07/29 05:03:39;;;;;;;22.52;12.43;;;20.40;99.90;;;;;;4975587;28;20190;-90
2021/07/29 05:06:04;;;;;;;18.23;12.70;;;20.40;99.90;;;;;;4942011;28;20639;-89
2021/07/29 05:08:30;;;;;;;22.10;12.98;;;;;;;;;;4958656;28;20246;-90
2021/07/29 05:10:56;;;;;;;16.80;12.68;;;;;;;;;;4978620;28;20543;-90
2021/07/29 05:13:23;;;;;;;18.10;12.15;;;20.50;99.90;;;;;;4959393;28;20190;-88
2021/07/29 05:15:48;;;;;;;20.38;12.65;;;20.50;99.90;;;;;;4975150;28;20185;-88
2021/07/29 05:18:14;;;;;;;18.10;12.43;;;20.50;99.90;;;;;;4975545;28;20186;-90
2021/07/29 05:20:40;;;;;;;20.13;12.32;;;20.50;99.90;;;;;;4975266;28;20241;-90
2021/07/29 05:23:06;;;;;;;17.23;12.38;;;20.50;99.90;;;;;;4941655;28;20553;-89
2021/07/29 05:25:35;;;;;;;18.45;11.27;;;20.50;99.90;;;;;;4958025;28;20185;-91
2021/07/29 05:28:01;;;;;;;23.52;11.93;;;20.50;99.90;;;;;;4975129;28;20238;-90
2021/07/29 05:30:26;;;;;;;13.40;10.63;;;20.50;99.90;;;;;;4957974;28;20194;-90
2021/07/29 05:32:52;;;;;;;17.67;11.18;;;20.60;99.90;;;;;;4973592;28;20541;-89
2021/07/29 05:35:18;;;;;;;15.77;10.60;;;20.70;99.90;;;;;;4975569;28;20171;-89
2021/07/29 05:37:43;;;;;;;16.00;10.45;;;20.70;99.90;;;;;;4957893;28;20193;-89
2021/07/29 05:40:09;;;;;;;18.05;11.50;;;20.80;99.90;;;;;;4973959;28;20281;-90
2021/07/29 05:42:35;;;;;;;16.52;13.18;;;20.90;99.90;;;;;;4957436;28;20547;-92
2021/07/29 05:45:02;;;;;;;18.88;12.98;;;21.00;99.90;;;;;;4956989;28;20337;-90
2021/07/29 05:47:28;;;;;;;15.63;12.15;;;21.00;99.90;;;;;;4973260;28;20179;-91
2021/07/29 05:49:53;;;;;;;19.95;14.70;;;21.20;99.90;;;;;;4974541;28;20220;-92
2021/07/29 05:52:19;;;;;;;22.65;16.08;;;21.10;99.90;;;;;;4942520;28;20207;-92
2021/07/29 05:54:45;;;;;;;23.08;16.55;;;21.10;99.90;;;;;;4959003;28;20182;-90
2021/07/29 05:57:10;;;;;;;24.75;16.70;;;21.10;99.90;;;;;;4972610;28;20813;-89
2021/07/29 05:59:36;;;;;;;25.33;17.85;;;21.10;99.90;;;;;;4975680;28;20281;-87
2021/07/29 06:02:02;;;;;;;24.90;18.95;;;21.10;99.90;;;;;;4988618;28;20261;-89
2021/07/29 06:04:27;;;;;;;22.00;17.92;;;21.10;99.90;;;;;;4974866;28;20187;-91
2021/07/29 06:06:53;;;;;;;22.13;18.95;;;21.10;99.90;;;;;;4975992;28;20174;-90
2021/07/29 06:09:19;;;;;;;26.92;18.35;;;21.00;99.90;;;;;;4966732;28;20236;-93
2021/07/29 06:11:45;;;;;;;20.83;16.63;;;21.10;99.90;;;;;;4977553;28;20678;-90
2021/07/29 06:14:10;;;;;;;22.83;17.85;;;21.10;99.90;;;;;;4959741;28;20193;-92
2021/07/29 06:16:36;;;;;;;26.73;18.08;;;21.10;99.90;;;;;;4994158;28;20178;-91
2021/07/29 06:19:10;;;;;;;25.15;19.08;;;21.10;99.90;;;;;;4993288;28;20186;-93
2021/07/29 06:21:37;;;;;;;23.27;18.42;;;21.30;99.90;;;;;;4975866;28;20181;-87
2021/07/29 06:24:03;;;;;;;26.27;19.77;;;21.10;99.90;;;;;;4992948;28;20174;-89
2021/07/29 06:26:29;;;;;;;24.30;18.67;;;21.00;99.90;;;;;;4993370;28;20217;-90
2021/07/29 06:28:55;;;;;;;27.55;18.63;;;21.10;99.90;;;;;;4993228;28;20217;-88
2021/07/29 06:31:21;;;;;;;23.23;18.88;;;21.00;99.90;;;;;;4993045;28;20186;-87
2021/07/29 06:33:46;;;;;;;24.13;18.10;;;21.20;99.90;;;;;;4975595;28;20233;-89
2021/07/29 06:36:12;;;;;;;21.13;16.20;;;;;;;;;;4974656;28;20177;-86
2021/07/29 06:38:39;;;;;;;21.65;16.05;;;21.40;99.90;;;;;;4978855;28;20186;-88
2021/07/29 06:41:08;;;;;;;20.27;15.18;;;21.70;99.90;;;;;;4943797;28;20635;-88
2021/07/29 06:43:35;;;;;;;23.20;15.40;;;21.70;99.90;;;;;;4977487;28;20178;-88
2021/07/29 06:46:08;;;;;;;22.83;15.15;;;21.90;99.90;;;;;;4985567;28;20598;-88
2021/07/29 06:48:34;;;;;;;17.13;15.07;;;22.10;99.90;;;;;;4971149;28;20206;-88
2021/07/29 06:51:08;;;;;;;18.63;14.55;;;22.30;99.90;;;;;;4977097;28;20201;-88
2021/07/29 06:53:35;;;;;;;19.48;14.77;;;22.10;99.90;;;;;;4965363;28;20530;-90
2021/07/29 06:56:02;;;;;;;17.75;14.50;;;22.60;99.90;;;;;;4970336;28;20277;-89
2021/07/29 06:58:28;;;;;;;16.00;14.07;;;22.60;99.90;;;;;;4989474;28;20190;-88
2021/07/29 07:00:54;;;;;;;16.20;14.50;;;;;;;;;;4977909;28;20201;-89
2021/07/29 07:03:20;;;;;;;20.13;14.52;;;22.50;99.90;;;;;;4968240;28;20213;-88
2021/07/29 07:05:46;;;;;;;17.15;12.95;;;22.40;99.90;;;;;;4987491;28;20596;-88
2021/07/29 07:08:13;;;;;;;19.65;13.75;;;22.50;99.90;;;;;;4996593;28;20232;-88
2021/07/29 07:10:40;;;;;;;19.38;12.07;;;22.70;99.90;;;;;;4983925;28;20181;-87
2021/07/29 07:13:06;;;;;;;18.83;11.93;;;22.80;99.90;;;;;;4959536;28;20655;-88
2021/07/29 07:15:32;;;;;;;13.82;11.00;;;22.90;99.90;;;;;;4958608;28;20190;-88
2021/07/29 07:17:59;;;;;;;13.20;10.93;;;23.00;99.90;;;;;;4959032;28;20191;-87
2021/07/29 07:20:25;;;;;;;16.92;11.43;;;23.00;99.90;;;;;;4976344;28;20748;-88
2021/07/29 07:22:52;;;;;;;15.73;11.13;;;23.10;99.90;;;;;;4975861;28;20199;-87
2021/07/29 07:25:18;;;;;;;15.55;10.00;;;23.20;99.90;;;;;;4958746;28;20325;-88
2021/07/29 07:27:44;;;;;;;11.75;9.80;;;23.10;99.90;;;;;;4976851;28;20252;-89
2021/07/29 07:30:10;;;;;;;15.95;9.50;;;23.10;99.90;;;;;;4959812;28;20663;-88
2021/07/29 07:32:35;;;;;;;17.88;10.82;;;23.20;99.90;;;;;;4960135;28;20197;-89
2021/07/29 07:35:03;;;;;;;19.60;10.32;;;23.30;99.90;;;;;;4979055;28;20318;-90
2021/07/29 07:37:28;;;;;;;17.33;10.30;;;23.40;99.90;;;;;;4960596;28;20183;-91
2021/07/29 07:39:54;;;;;;;17.85;9.02;;;23.40;99.90;;;;;;4960945;28;20182;-91
2021/07/29 07:42:20;;;;;;;13.70;8.48;;;23.30;99.90;;;;;;4977324;28;20632;-90
2021/07/29 07:44:46;;;;;;;14.50;9.05;;;;;;;;;;4977856;28;20182;-92
2021/07/29 07:47:11;;;;;;;14.35;10.23;;;23.50;99.90;;;;;;4959659;28;20624;-88
2021/07/29 07:49:39;;;;;;;14.93;9.23;;;23.60;99.90;;;;;;4961365;28;20237;-91
2021/07/29 07:52:09;;;;;;;12.35;8.35;;;23.80;99.90;;;;;;4960099;28;20190;-90
2021/07/29 07:54:36;;;;;;;9.32;6.85;;;23.90;99.90;;;;;;4993409;28;20710;-90
2021/07/29 07:57:03;;;;;;;13.52;7.10;;;24.00;99.90;;;;;;4983026;28;20193;-89
2021/07/29 07:59:29;;;;;;;13.75;8.30;;;24.20;99.90;;;;;;4978801;28;20189;-90
2021/07/29 08:01:55;;;;;;;10.63;7.80;;;;;;;;;;4946945;28;20174;-87
2021/07/29 08:04:24;;;;;;;11.15;7.97;;;24.00;99.90;;;;;;4979093;28;20542;-92
2021/07/29 08:06:50;;;;;;;7.85;6.10;;;;;;;;;;4980195;28;20178;-89
2021/07/29 08:09:17;;;;;;;9.05;6.20;;;24.00;99.90;;;;;;4963580;28;20236;-89
2021/07/29 08:11:42;;;;;;;11.75;6.80;;;24.00;99.90;;;;;;4981010;28;20210;-88
2021/07/29 08:14:08;;;;;;;12.40;6.63;;;23.80;99.90;;;;;;4963700;28;20178;-89
2021/07/29 08:16:36;;;;;;;10.07;6.18;;;23.70;99.90;;;;;;4962415;28;20182;-90
2021/07/29 08:19:02;;;;;;;9.85;6.45;;;23.80;99.90;;;;;;4996405;28;20177;-89
2021/07/29 08:21:28;;;;;;;7.68;5.97;;;;;;;;;;4962857;28;20189;-89
2021/07/29 08:23:54;;;;;;;9.10;5.63;;;23.70;99.90;;;;;;4978450;28;20178;-90
2021/07/29 08:26:20;;;;;;;8.38;5.45;;;;;;;;;;4977048;28;20686;-88
2021/07/29 08:28:54;;;;;;;11.32;6.75;;;23.70;99.90;;;;;;4960732;28;20206;-88
2021/07/29 08:31:20;;;;;;;5.70;5.20;;;24.10;99.90;;;;;;4975004;28;20183;-88
2021/07/29 08:33:46;;;;;;;6.88;5.50;;;20.90;99.90;;;;;;4958185;28;20316;-88
2021/07/29 08:36:16;;;;;;;8.15;5.82;;;24.00;99.90;;;;;;4957508;28;20664;-88
2021/07/29 08:38:43;;;;;;;8.05;4.82;;;24.10;99.90;;;;;;4974285;28;20175;-87
2021/07/29 08:41:09;;;;;;;8.00;5.38;;;;;;;;;;4957119;28;20197;-90
2021/07/29 08:43:36;;;;;;;6.38;5.18;;;;;;;;;;4957585;28;20185;-88
2021/07/29 08:46:07;;;;;;;5.10;4.55;;;;;;;;;;4958085;28;20662;-88
2021/07/29 08:48:35;;;;;;;8.05;4.28;;;24.40;99.90;;;;;;4957830;28;20298;-88
2021/07/29 08:51:01;;;;;;;7.88;4.45;;;;;;;;;;4975374;28;20175;-88
2021/07/29 08:53:27;;;;;;;9.93;4.75;;;;;;;;;;4957420;28;20202;-88
2021/07/29 08:55:54;;;;;;;7.88;5.05;;;24.60;99.90;;;;;;4957871;28;20186;-88
2021/07/29 08:58:20;;;;;;;6.93;4.55;;;;;;;;;;4974950;28;20338;-88
2021/07/29 09:01:11;;;;;;;5.95;4.22;;;24.70;99.90;;;;;;4957923;28;20178;-88
2021/07/29 09:03:37;;;;;;;4.32;3.85;;;24.90;99.90;;;;;;4974746;28;20159;-88
2021/07/29 09:06:11;;;;;;;5.07;3.63;;;24.90;99.90;;;;;;4975182;28;20182;-90
2021/07/29 09:08:44;;;;;;;5.15;3.17;;;25.10;99.90;;;;;;4942038;28;21100;-88
2021/07/29 09:11:34;;;;;;;3.90;3.50;;;24.90;99.90;;;;;;4957404;28;20182;-88
2021/07/29 09:14:12;;;;;;;4.78;3.28;;;24.70;99.90;;;;;;4971885;28;20542;-90
2021/07/29 09:16:56;;;;;;;7.53;3.67;;;24.70;99.90;;;;;;4955533;28;20982;-89
2021/07/29 09:19:34;;;;;;;5.43;3.70;;;24.80;99.90;;;;;;4955169;28;20179;-88
2021/07/29 09:22:06;;;;;;;4.55;3.33;;;24.90;99.90;;;;;;4958759;28;20205;-88
2021/07/29 09:24:32;;;;;;;4.72;3.63;;;;;;;;;;4964923;28;20182;-91
2021/07/29 09:26:59;;;;;;;4.57;3.50;;;25.20;99.90;;;;;;4974041;28;20179;-90
2021/07/29 09:29:34;;;;;;;5.60;3.30;;;25.50;99.90;;;;;;4967474;28;20212;-93
2021/07/29 09:32:05;;;;;;;4.50;3.45;;;25.40;99.90;;;;;;4966427;28;20241;-91
2021/07/29 09:34:45;;;;;;;5.18;3.60;;;25.50;99.90;;;;;;4961152;28;20227;-93
2021/07/29 09:37:11;;;;;;;9.60;3.22;;;;;;;;;;4962650;28;20182;-91
2021/07/29 09:39:38;;;;;;;5.35;3.42;;;;;;;;;;4963278;28;20656;-91
2021/07/29 09:42:17;;;;;;;4.68;3.00;;;25.50;99.90;;;;;;4967080;28;20234;-90
2021/07/29 09:44:45;;;;;;;4.65;3.25;;;25.70;99.90;;;;;;4967891;28;20186;-90
2021/07/29 09:47:11;;;;;;;3.38;2.80;;;25.90;99.90;;;;;;4978921;28;20229;-88
2021/07/29 09:49:38;;;;;;;4.93;3.10;;;25.80;99.90;;;;;;4963397;28;20710;-88
2021/07/29 09:52:05;;;;;;;4.35;3.03;;;25.70;99.90;;;;;;4948454;28;20198;-90
2021/07/29 09:54:38;;;;;;;7.25;2.67;;;26.30;99.90;;;;;;4964112;28;20175;-90
2021/07/29 09:57:04;;;;;;;3.20;2.90;;;26.10;99.90;;;;;;4970919;28;20269;-89
2021/07/29 09:59:32;;;;;;;3.75;3.25;;;26.00;99.90;;;;;;4964124;28;20186;-91
2021/07/29 10:02:01;;;;;;;5.10;2.95;;;26.10;99.90;;;;;;4961755;28;20600;-89
2021/07/29 10:04:36;;;;;;;3.35;2.67;;;26.00;99.90;;;;;;4964263;28;20178;-88
2021/07/29 10:07:06;;;;;;;4.20;2.67;;;26.20;99.90;;;;;;4968070;28;20200;-89
2021/07/29 10:09:44;;;;;;;5.43;3.08;;;26.30;99.90;;;;;;4965672;28;20206;-88
2021/07/29 10:12:19;;;;;;;5.82;2.80;;;26.20;99.90;;;;;;4963119;28;20632;-91
2021/07/29 10:14:51;;;;;;;4.63;2.80;;;26.20;99.90;;;;;;4954390;28;20264;-88
2021/07/29 10:17:18;;;;;;;3.85;3.33;;;26.40;99.90;;;;;;4964515;28;20523;-88
2021/07/29 10:20:14;;;;;;;5.13;3.05;;;26.30;99.90;;;;;;4978049;28;20190;-89
2021/07/29 10:22:41;;;;;;;3.85;3.45;;;;;;;;;;4954808;28;20598;-90
2021/07/29 10:25:07;;;;;;;4.80;3.30;;;26.50;99.90;;;;;;4967209;28;20195;-90
2021/07/29 10:27:33;;;;;;;5.32;3.05;;;;;;;;;;4962141;28;20187;-90
2021/07/29 10:30:21;;;;;;;5.25;3.08;;;26.70;99.90;;;;;;4959659;28;20221;-90
2021/07/29 10:32:51;;;;;;;4.00;3.20;;;26.80;99.90;;;;;;4964269;28;20187;-90
2021/07/29 10:35:29;;;;;;;6.15;3.13;;;26.60;99.90;;;;;;4969625;28;20170;-89
2021/07/29 10:37:55;;;;;;;3.90;2.95;;;;;;;;;;4969927;28;20185;-90
2021/07/29 10:40:38;;;;;;;5.13;3.20;;;26.80;99.90;;;;;;4965899;28;20310;-90
2021/07/29 10:43:25;;;;;;;4.72;3.40;;;27.10;99.90;;;;;;4984599;28;20253;-89
2021/07/29 10:45:53;;;;;;;6.40;3.40;;;26.80;99.90;;;;;;4984470;28;20453;-87
2021/07/29 10:48:47;;;;;;;6.03;3.47;;;26.70;99.90;;;;;;4967461;28;20187;-87
2021/07/29 10:51:21;;;;;;;3.25;2.95;;;26.80;99.90;;;;;;4984609;28;20194;-87
2021/07/29 10:53:48;;;;;;;4.13;3.13;;;27.00;99.90;;;;;;4980847;28;20177;-87
2021/07/29 10:56:15;;;;;;;4.20;2.60;;;26.90;98.30;;;;;;4985698;28;20180;-86
2021/07/29 10:58:45;;;;;;;4.18;2.63;;;27.10;97.70;;;;;;4981038;28;20182;-88
2021/07/29 11:01:12;;;;;;;4.70;2.75;;;27.00;98.20;;;;;;4967452;28;20174;-86
2021/07/29 11:03:54;;;;;;;2.92;2.22;;;27.00;98.10;;;;;;4981660;28;20192;-86
2021/07/29 11:06:39;;;;;;;3.00;2.63;;;27.20;97.90;;;;;;4956068;28;20182;-86
2021/07/29 11:09:19;;;;;;;5.97;2.45;;;27.30;97.30;;;;;;4958202;28;20213;-85
2021/07/29 11:11:50;;;;;;;3.83;2.50;;;27.20;97.90;;;;;;4985097;28;20712;-89
2021/07/29 11:14:33;;;;;;;5.35;2.50;;;27.30;95.30;;;;;;4978379;28;20174;-85
2021/07/29 11:17:01;;;;;;;2.95;2.38;;;27.30;95.70;;;;;;4987078;28;20167;-87
2021/07/29 11:19:28;;;;;;;2.95;2.28;;;27.30;95.40;;;;;;4980938;28;20585;-85
2021/07/29 11:22:04;;;;;;;3.88;2.13;;;27.50;95.50;;;;;;4973893;28;20190;-88
2021/07/29 11:24:31;;;;;;;2.75;2.40;;;27.60;95.30;;;;;;4973003;28;20278;-87
2021/07/29 11:26:58;;;;;;;2.63;2.30;;;27.70;94.70;;;;;;4976373;28;20182;-88
2021/07/29 11:29:24;;;;;;;3.33;2.45;;;;;;;;;;4976942;28;20202;-87
2021/07/29 11:31:56;;;;;;;2.88;2.35;;;27.80;94.20;;;;;;4976205;28;20713;-86
2021/07/29 11:34:35;;;;;;;2.80;2.30;;;27.80;94.30;;;;;;4975601;28;20241;-88
2021/07/29 11:37:02;;;;;;;2.33;2.13;;;27.80;95.10;;;;;;4970020;28;20179;-86
2021/07/29 11:39:41;;;;;;;3.58;2.80;;;27.90;94.30;;;;;;4966011;28;20182;-86
2021/07/29 11:42:06;;;;;;;3.08;2.30;;;27.80;94.60;;;;;;4950622;28;20214;-87
2021/07/29 11:44:40;;;;;;;2.58;2.30;;;27.70;95.20;;;;;;4986741;28;20634;-86
2021/07/29 11:47:06;;;;;;;2.83;2.17;;;27.90;94.50;;;;;;4976965;28;20274;-85
2021/07/29 11:49:54;;;;;;;4.50;2.22;;;28.00;93.40;;;;;;4983617;28;20602;-86
2021/07/29 11:52:20;;;;;;;3.70;2.70;;;27.90;93.20;;;;;;4972384;28;20178;-86
2021/07/29 11:54:47;;;;;;;3.08;2.40;;;28.00;94.30;;;;;;4975402;28;20635;-86
2021/07/29 11:57:14;;;;;;;4.10;2.10;;;28.10;92.70;;;;;;4965717;28;20182;-86
2021/07/29 11:59:44;;;;;;;12.43;3.00;;;28.20;93.60;;;;;;4965892;28;20193;-85
2021/07/29 12:02:10;;;;;;;3.70;2.10;;;28.10;93.40;;;;;;4988165;28;20182;-86
2021/07/29 12:04:42;;;;;;;2.53;2.00;;;28.00;92.60;;;;;;4960512;28;20178;-86
2021/07/29 12:07:13;;;;;;;4.50;2.00;;;28.10;91.50;;;;;;4985294;28;20174;-85
2021/07/29 12:09:44;;;;;;;2.70;2.28;;;28.20;91.90;;;;;;4975000;28;20293;-86
2021/07/29 12:12:11;;;;;;;3.63;2.90;;;;;;;;;;4959818;28;20193;-86
2021/07/29 12:14:37;;;;;;;3.33;2.38;;;;;;;;;;4976544;28;20190;-87
2021/07/29 12:17:21;;;;;;;3.55;2.67;;;28.00;92.00;;;;;;4960335;28;20189;-89
2021/07/29 12:19:58;;;;;;;5.18;2.30;;;28.00;93.00;;;;;;4974971;28;20274;-87
2021/07/29 12:22:26;;;;;;;5.78;2.80;;;27.90;93.00;;;;;;4972549;28;20181;-87
2021/07/29 12:24:53;;;;;;;5.63;2.28;;;27.90;92.40;;;;;;4978544;28;20302;-86
2021/07/29 12:27:19;;;;;;;8.27;2.67;;;27.90;92.70;;;;;;4958892;28;20182;-86
2021/07/29 12:29:46;;;;;;;6.57;2.45;;;28.00;92.70;;;;;;4985665;28;20228;-86
2021/07/29 12:32:19;;;;;;;9.75;2.78;;;28.10;92.20;;;;;;4969400;28;20201;-87
2021/07/29 12:34:48;;;;;;;6.35;2.22;;;28.20;90.90;;;;;;4977309;28;20308;-87
2021/07/29 12:37:31;;;;;;;2.80;2.30;;;28.10;91.90;;;;;;4964716;28;20178;-85
2021/07/29 12:39:57;;;;;;;3.15;2.63;;;28.10;92.20;;;;;;4984175;28;20614;-86
2021/07/29 12:42:29;;;;;;;6.65;2.67;;;28.00;92.40;;;;;;4968378;28;20189;-85
2021/07/29 12:45:05;;;;;;;4.63;2.40;;;27.90;92.00;;;;;;4976754;28;20225;-87
2021/07/29 12:47:31;;;;;;;2.63;2.33;;;27.90;91.20;;;;;;4994555;28;20158;-85
2021/07/29 12:49:57;;;;;;;3.65;2.65;;;27.90;91.40;;;;;;4971564;28;20217;-85
2021/07/29 12:52:24;;;;;;;3.58;2.45;;;27.90;91.00;;;;;;4968380;28;20631;-86